sensor_id;sensor_type;location;lat;lon;timestamp;P1;durP1;ratioP1;P2;durP2;ratioP2
19225;SDS011;9747;48.536;12.522;2023-07-29T00:01:02;6.32;;;5.93;;
19225;SDS011;9747;48.536;12.522;2023-07-29T00:03:29;6.68;;;6.07;;
19225;SDS011;9747;48.536;12.522;2023-07-29T00:05:57;6.18;;;5.78;;
19225;SDS011;9747;48.536;12.522;2023-07-29T00:08:24;6.30;;;5.82;;
19225;SDS011;9747;48.536;12.522;2023-07-29T00:10:52;6.32;;;5.93;;
19225;SDS011;9747;48.536;12.522;2023-07-29T00:13:20;6.22;;;5.70;;
19225;SDS011;9747;48.536;12.522;2023-07-29T00:15:48;6.18;;;5.60;;
19225;SDS011;9747;48.536;12.522;2023-07-29T00:18:16;5.88;;;5.47;;
19225;SDS011;9747;48.536;12.522;2023-07-29T00:20:43;6.07;;;5.57;;
19225;SDS011;9747;48.536;12.522;2023-07-29T00:23:11;5.82;;;5.43;;
19225;SDS011;9747;48.536;12.522;2023-07-29T00:25:39;5.65;;;5.28;;
19225;SDS011;9747;48.536;12.522;2023-07-29T00:28:06;6.00;;;5.60;;
19225;SDS011;9747;48.536;12.522;2023-07-29T00:30:33;5.85;;;5.43;;
19225;SDS011;9747;48.536;12.522;2023-07-29T00:33:02;6.00;;;5.50;;
19225;SDS011;9747;48.536;12.522;2023-07-29T00:35:30;5.60;;;5.30;;
19225;SDS011;9747;48.536;12.522;2023-07-29T00:37:59;5.40;;;5.10;;
19225;SDS011;9747;48.536;12.522;2023-07-29T00:40:27;5.40;;;5.10;;
19225;SDS011;9747;48.536;12.522;2023-07-29T00:42:56;5.47;;;5.07;;
19225;SDS011;9747;48.536;12.522;2023-07-29T00:45:23;5.40;;;5.10;;
19225;SDS011;9747;48.536;12.522;2023-07-29T00:47:52;5.43;;;5.07;;
19225;SDS011;9747;48.536;12.522;2023-07-29T00:50:21;5.80;;;5.38;;
19225;SDS011;9747;48.536;12.522;2023-07-29T00:52:49;5.43;;;5.13;;
19225;SDS011;9747;48.536;12.522;2023-07-29T00:55:17;5.20;;;4.90;;
19225;SDS011;9747;48.536;12.522;2023-07-29T00:57:44;5.82;;;5.35;;
19225;SDS011;9747;48.536;12.522;2023-07-29T01:00:14;5.57;;;5.20;;
19225;SDS011;9747;48.536;12.522;2023-07-29T01:02:42;5.30;;;5.00;;
19225;SDS011;9747;48.536;12.522;2023-07-29T01:05:12;5.30;;;4.90;;
19225;SDS011;9747;48.536;12.522;2023-07-29T01:07:44;5.00;;;4.80;;
19225;SDS011;9747;48.536;12.522;2023-07-29T01:10:18;5.13;;;4.78;;
19225;SDS011;9747;48.536;12.522;2023-07-29T01:12:54;4.95;;;4.68;;
19225;SDS011;9747;48.536;12.522;2023-07-29T01:15:26;4.90;;;4.60;;
19225;SDS011;9747;48.536;12.522;2023-07-29T01:17:59;5.00;;;4.70;;
19225;SDS011;9747;48.536;12.522;2023-07-29T01:20:32;5.03;;;4.72;;
19225;SDS011;9747;48.536;12.522;2023-07-29T01:23:02;4.88;;;4.68;;
19225;SDS011;9747;48.536;12.522;2023-07-29T01:25:30;5.20;;;4.90;;
19225;SDS011;9747;48.536;12.522;2023-07-29T01:27:58;4.70;;;4.50;;
19225;SDS011;9747;48.536;12.522;2023-07-29T01:30:28;4.78;;;4.47;;
19225;SDS011;9747;48.536;12.522;2023-07-29T01:33:01;4.68;;;4.47;;
19225;SDS011;9747;48.536;12.522;2023-07-29T01:35:35;5.13;;;4.82;;
19225;SDS011;9747;48.536;12.522;2023-07-29T01:38:19;5.20;;;4.90;;
19225;SDS011;9747;48.536;12.522;2023-07-29T01:40:52;5.05;;;4.75;;
19225;SDS011;9747;48.536;12.522;2023-07-29T01:43:20;5.30;;;5.00;;
19225;SDS011;9747;48.536;12.522;2023-07-29T01:45:50;4.82;;;4.53;;
19225;SDS011;9747;48.536;12.522;2023-07-29T01:48:18;4.55;;;4.25;;
19225;SDS011;9747;48.536;12.522;2023-07-29T01:50:48;4.75;;;4.45;;
19225;SDS011;9747;48.536;12.522;2023-07-29T01:53:15;4.57;;;4.22;;
19225;SDS011;9747;48.536;12.522;2023-07-29T01:55:43;4.30;;;4.10;;
19225;SDS011;9747;48.536;12.522;2023-07-29T01:58:13;4.72;;;4.53;;
19225;SDS011;9747;48.536;12.522;2023-07-29T02:00:45;4.47;;;4.28;;
19225;SDS011;9747;48.536;12.522;2023-07-29T02:03:13;4.82;;;4.53;;
19225;SDS011;9747;48.536;12.522;2023-07-29T02:05:40;4.47;;;4.28;;
19225;SDS011;9747;48.536;12.522;2023-07-29T02:08:08;5.10;;;4.70;;
19225;SDS011;9747;48.536;12.522;2023-07-29T02:10:37;4.78;;;4.47;;
19225;SDS011;9747;48.536;12.522;2023-07-29T02:13:04;4.40;;;4.20;;
19225;SDS011;9747;48.536;12.522;2023-07-29T02:15:33;4.63;;;4.38;;
19225;SDS011;9747;48.536;12.522;2023-07-29T02:18:00;4.45;;;4.18;;
19225;SDS011;9747;48.536;12.522;2023-07-29T02:20:28;4.85;;;4.60;;
19225;SDS011;9747;48.536;12.522;2023-07-29T02:22:56;4.47;;;4.28;;
19225;SDS011;9747;48.536;12.522;2023-07-29T02:25:24;4.63;;;4.28;;
19225;SDS011;9747;48.536;12.522;2023-07-29T02:27:51;4.22;;;4.03;;
19225;SDS011;9747;48.536;12.522;2023-07-29T02:30:20;4.47;;;4.20;;
19225;SDS011;9747;48.536;12.522;2023-07-29T02:32:49;4.43;;;4.13;;
19225;SDS011;9747;48.536;12.522;2023-07-29T02:35:16;4.10;;;3.90;;
19225;SDS011;9747;48.536;12.522;2023-07-29T02:37:44;4.28;;;4.07;;
19225;SDS011;9747;48.536;12.522;2023-07-29T02:40:12;4.10;;;3.90;;
19225;SDS011;9747;48.536;12.522;2023-07-29T02:42:40;4.30;;;4.00;;
19225;SDS011;9747;48.536;12.522;2023-07-29T02:45:08;4.00;;;3.80;;
19225;SDS011;9747;48.536;12.522;2023-07-29T02:47:36;3.92;;;3.72;;
19225;SDS011;9747;48.536;12.522;2023-07-29T02:50:06;3.95;;;3.70;;
19225;SDS011;9747;48.536;12.522;2023-07-29T02:52:34;4.22;;;4.03;;
19225;SDS011;9747;48.536;12.522;2023-07-29T02:55:02;4.07;;;3.88;;
19225;SDS011;9747;48.536;12.522;2023-07-29T02:57:30;3.92;;;3.72;;
19225;SDS011;9747;48.536;12.522;2023-07-29T02:59:57;3.80;;;3.60;;
19225;SDS011;9747;48.536;12.522;2023-07-29T03:02:25;4.07;;;3.83;;
19225;SDS011;9747;48.536;12.522;2023-07-29T03:04:52;3.60;;;3.40;;
19225;SDS011;9747;48.536;12.522;2023-07-29T03:07:21;3.90;;;3.70;;
19225;SDS011;9747;48.536;12.522;2023-07-29T03:09:49;4.10;;;3.90;;
19225;SDS011;9747;48.536;12.522;2023-07-29T03:12:17;3.90;;;3.70;;
19225;SDS011;9747;48.536;12.522;2023-07-29T03:14:47;3.80;;;3.65;;
19225;SDS011;9747;48.536;12.522;2023-07-29T03:17:14;3.83;;;3.63;;
19225;SDS011;9747;48.536;12.522;2023-07-29T03:19:42;3.88;;;3.67;;
19225;SDS011;9747;48.536;12.522;2023-07-29T03:22:10;3.83;;;3.63;;
19225;SDS011;9747;48.536;12.522;2023-07-29T03:24:38;3.78;;;3.58;;
19225;SDS011;9747;48.536;12.522;2023-07-29T03:27:08;3.60;;;3.40;;
19225;SDS011;9747;48.536;12.522;2023-07-29T03:29:35;3.97;;;3.75;;
19225;SDS011;9747;48.536;12.522;2023-07-29T03:32:04;3.75;;;3.55;;
19225;SDS011;9747;48.536;12.522;2023-07-29T03:34:32;3.65;;;3.50;;
19225;SDS011;9747;48.536;12.522;2023-07-29T03:37:00;3.25;;;3.15;;
19225;SDS011;9747;48.536;12.522;2023-07-29T03:39:28;3.53;;;3.33;;
19225;SDS011;9747;48.536;12.522;2023-07-29T03:41:56;3.60;;;3.40;;
19225;SDS011;9747;48.536;12.522;2023-07-29T03:44:24;3.38;;;3.17;;
19225;SDS011;9747;48.536;12.522;2023-07-29T03:46:52;3.58;;;3.38;;
19225;SDS011;9747;48.536;12.522;2023-07-29T03:49:20;3.40;;;3.30;;
19225;SDS011;9747;48.536;12.522;2023-07-29T03:51:48;3.30;;;3.10;;
19225;SDS011;9747;48.536;12.522;2023-07-29T03:54:15;3.83;;;3.63;;
19225;SDS011;9747;48.536;12.522;2023-07-29T03:56:43;3.58;;;3.30;;
19225;SDS011;9747;48.536;12.522;2023-07-29T03:59:11;3.33;;;3.20;;
19225;SDS011;9747;48.536;12.522;2023-07-29T04:01:39;3.45;;;3.25;;
19225;SDS011;9747;48.536;12.522;2023-07-29T04:04:06;3.20;;;3.10;;
19225;SDS011;9747;48.536;12.522;2023-07-29T04:06:34;3.38;;;3.17;;
19225;SDS011;9747;48.536;12.522;2023-07-29T04:09:02;3.10;;;3.00;;
19225;SDS011;9747;48.536;12.522;2023-07-29T04:11:29;3.22;;;3.10;;
19225;SDS011;9747;48.536;12.522;2023-07-29T04:13:57;3.40;;;3.25;;
19225;SDS011;9747;48.536;12.522;2023-07-29T04:16:26;3.33;;;3.22;;
19225;SDS011;9747;48.536;12.522;2023-07-29T04:18:54;3.22;;;3.13;;
19225;SDS011;9747;48.536;12.522;2023-07-29T04:21:21;3.45;;;3.25;;
19225;SDS011;9747;48.536;12.522;2023-07-29T04:23:49;2.83;;;2.72;;
19225;SDS011;9747;48.536;12.522;2023-07-29T04:26:16;3.22;;;3.10;;
19225;SDS011;9747;48.536;12.522;2023-07-29T04:28:43;3.15;;;3.05;;
19225;SDS011;9747;48.536;12.522;2023-07-29T04:31:11;3.20;;;3.10;;
19225;SDS011;9747;48.536;12.522;2023-07-29T04:33:40;2.97;;;2.88;;
19225;SDS011;9747;48.536;12.522;2023-07-29T04:36:07;3.00;;;2.90;;
19225;SDS011;9747;48.536;12.522;2023-07-29T04:38:36;3.13;;;2.92;;
19225;SDS011;9747;48.536;12.522;2023-07-29T04:41:04;3.10;;;3.00;;
19225;SDS011;9747;48.536;12.522;2023-07-29T04:43:34;3.28;;;3.17;;
19225;SDS011;9747;48.536;12.522;2023-07-29T04:46:01;2.95;;;2.85;;
19225;SDS011;9747;48.536;12.522;2023-07-29T04:48:29;2.88;;;2.70;;
19225;SDS011;9747;48.536;12.522;2023-07-29T04:50:58;3.08;;;2.97;;
19225;SDS011;9747;48.536;12.522;2023-07-29T04:53:25;3.03;;;2.85;;
19225;SDS011;9747;48.536;12.522;2023-07-29T04:55:53;2.90;;;2.80;;
19225;SDS011;9747;48.536;12.522;2023-07-29T04:58:20;3.50;;;3.30;;
19225;SDS011;9747;48.536;12.522;2023-07-29T05:00:47;2.80;;;2.70;;
19225;SDS011;9747;48.536;12.522;2023-07-29T05:03:15;3.00;;;2.90;;
19225;SDS011;9747;48.536;12.522;2023-07-29T05:05:42;2.90;;;2.80;;
19225;SDS011;9747;48.536;12.522;2023-07-29T05:08:12;3.03;;;2.92;;
19225;SDS011;9747;48.536;12.522;2023-07-29T05:10:40;2.70;;;2.60;;
19225;SDS011;9747;48.536;12.522;2023-07-29T05:13:07;3.03;;;2.92;;
19225;SDS011;9747;48.536;12.522;2023-07-29T05:15:35;2.92;;;2.83;;
19225;SDS011;9747;48.536;12.522;2023-07-29T05:18:03;2.90;;;2.80;;
19225;SDS011;9747;48.536;12.522;2023-07-29T05:20:30;2.65;;;2.55;;
19225;SDS011;9747;48.536;12.522;2023-07-29T05:22:57;2.67;;;2.58;;
19225;SDS011;9747;48.536;12.522;2023-07-29T05:25:27;3.00;;;2.90;;
19225;SDS011;9747;48.536;12.522;2023-07-29T05:27:54;2.78;;;2.67;;
19225;SDS011;9747;48.536;12.522;2023-07-29T05:30:22;2.70;;;2.60;;
19225;SDS011;9747;48.536;12.522;2023-07-29T05:32:52;2.83;;;2.72;;
19225;SDS011;9747;48.536;12.522;2023-07-29T05:35:19;2.50;;;2.40;;
19225;SDS011;9747;48.536;12.522;2023-07-29T05:37:47;2.60;;;2.50;;
19225;SDS011;9747;48.536;12.522;2023-07-29T05:40:14;2.50;;;2.40;;
19225;SDS011;9747;48.536;12.522;2023-07-29T05:42:44;2.60;;;2.50;;
19225;SDS011;9747;48.536;12.522;2023-07-29T05:45:13;2.47;;;2.38;;
19225;SDS011;9747;48.536;12.522;2023-07-29T05:47:40;2.90;;;2.70;;
19225;SDS011;9747;48.536;12.522;2023-07-29T05:50:08;2.63;;;2.53;;
19225;SDS011;9747;48.536;12.522;2023-07-29T05:52:36;2.67;;;2.58;;
19225;SDS011;9747;48.536;12.522;2023-07-29T05:55:04;2.67;;;2.58;;
19225;SDS011;9747;48.536;12.522;2023-07-29T05:57:32;2.53;;;2.42;;
19225;SDS011;9747;48.536;12.522;2023-07-29T06:00:01;2.55;;;2.45;;
19225;SDS011;9747;48.536;12.522;2023-07-29T06:02:38;2.55;;;2.45;;
19225;SDS011;9747;48.536;12.522;2023-07-29T06:05:07;2.33;;;2.22;;
19225;SDS011;9747;48.536;12.522;2023-07-29T06:07:35;2.42;;;2.33;;
19225;SDS011;9747;48.536;12.522;2023-07-29T06:10:03;2.50;;;2.40;;
19225;SDS011;9747;48.536;12.522;2023-07-29T06:12:31;2.63;;;2.38;;
19225;SDS011;9747;48.536;12.522;2023-07-29T06:14:59;3.97;;;2.50;;
19225;SDS011;9747;48.536;12.522;2023-07-29T06:17:27;2.33;;;2.22;;
19225;SDS011;9747;48.536;12.522;2023-07-29T06:19:55;3.55;;;2.30;;
19225;SDS011;9747;48.536;12.522;2023-07-29T06:22:22;2.63;;;2.38;;
19225;SDS011;9747;48.536;12.522;2023-07-29T06:24:50;2.22;;;2.13;;
19225;SDS011;9747;48.536;12.522;2023-07-29T06:27:17;2.50;;;2.25;;
19225;SDS011;9747;48.536;12.522;2023-07-29T06:29:45;2.40;;;2.20;;
19225;SDS011;9747;48.536;12.522;2023-07-29T06:32:14;2.58;;;2.10;;
19225;SDS011;9747;48.536;12.522;2023-07-29T06:34:41;3.33;;;2.35;;
19225;SDS011;9747;48.536;12.522;2023-07-29T06:37:09;2.22;;;2.05;;
19225;SDS011;9747;48.536;12.522;2023-07-29T06:39:37;3.20;;;1.92;;
19225;SDS011;9747;48.536;12.522;2023-07-29T06:42:04;2.63;;;2.38;;
19225;SDS011;9747;48.536;12.522;2023-07-29T06:44:32;3.47;;;2.03;;
19225;SDS011;9747;48.536;12.522;2023-07-29T06:46:59;3.55;;;2.10;;
19225;SDS011;9747;48.536;12.522;2023-07-29T06:49:28;2.40;;;2.25;;
19225;SDS011;9747;48.536;12.522;2023-07-29T06:51:56;2.35;;;2.15;;
19225;SDS011;9747;48.536;12.522;2023-07-29T06:54:23;2.22;;;1.92;;
19225;SDS011;9747;48.536;12.522;2023-07-29T06:56:51;4.30;;;2.00;;
19225;SDS011;9747;48.536;12.522;2023-07-29T06:59:19;1.75;;;1.65;;
19225;SDS011;9747;48.536;12.522;2023-07-29T07:01:46;1.90;;;1.80;;
19225;SDS011;9747;48.536;12.522;2023-07-29T07:04:14;2.33;;;2.13;;
19225;SDS011;9747;48.536;12.522;2023-07-29T07:06:42;1.85;;;1.70;;
19225;SDS011;9747;48.536;12.522;2023-07-29T07:09:10;2.00;;;1.88;;
19225;SDS011;9747;48.536;12.522;2023-07-29T07:11:37;2.63;;;2.08;;
19225;SDS011;9747;48.536;12.522;2023-07-29T07:14:05;2.15;;;1.95;;
19225;SDS011;9747;48.536;12.522;2023-07-29T07:16:32;2.03;;;1.90;;
19225;SDS011;9747;48.536;12.522;2023-07-29T07:19:02;2.25;;;2.05;;
19225;SDS011;9747;48.536;12.522;2023-07-29T07:21:29;3.17;;;1.70;;
19225;SDS011;9747;48.536;12.522;2023-07-29T07:23:59;1.88;;;1.77;;
19225;SDS011;9747;48.536;12.522;2023-07-29T07:26:26;1.75;;;1.65;;
19225;SDS011;9747;48.536;12.522;2023-07-29T07:28:54;2.95;;;1.80;;
19225;SDS011;9747;48.536;12.522;2023-07-29T07:31:22;2.85;;;2.13;;
19225;SDS011;9747;48.536;12.522;2023-07-29T07:33:50;2.67;;;2.10;;
19225;SDS011;9747;48.536;12.522;2023-07-29T07:36:17;2.13;;;2.03;;
19225;SDS011;9747;48.536;12.522;2023-07-29T07:38:45;3.55;;;1.90;;
19225;SDS011;9747;48.536;12.522;2023-07-29T07:41:13;2.22;;;2.00;;
19225;SDS011;9747;48.536;12.522;2023-07-29T07:43:41;2.95;;;2.20;;
19225;SDS011;9747;48.536;12.522;2023-07-29T07:46:09;2.40;;;2.20;;
19225;SDS011;9747;48.536;12.522;2023-07-29T07:48:37;3.45;;;2.03;;
19225;SDS011;9747;48.536;12.522;2023-07-29T07:51:11;2.20;;;2.00;;
19225;SDS011;9747;48.536;12.522;2023-07-29T07:53:39;2.80;;;2.00;;
19225;SDS011;9747;48.536;12.522;2023-07-29T07:56:07;2.30;;;2.00;;
19225;SDS011;9747;48.536;12.522;2023-07-29T07:58:36;3.17;;;1.77;;
19225;SDS011;9747;48.536;12.522;2023-07-29T08:01:04;3.53;;;1.90;;
19225;SDS011;9747;48.536;12.522;2023-07-29T08:03:32;2.83;;;1.90;;
19225;SDS011;9747;48.536;12.522;2023-07-29T08:06:00;2.25;;;1.95;;
19225;SDS011;9747;48.536;12.522;2023-07-29T08:08:28;6.78;;;2.38;;
19225;SDS011;9747;48.536;12.522;2023-07-29T08:10:56;4.60;;;2.13;;
19225;SDS011;9747;48.536;12.522;2023-07-29T08:13:24;4.80;;;2.10;;
19225;SDS011;9747;48.536;12.522;2023-07-29T08:15:53;2.80;;;2.00;;
19225;SDS011;9747;48.536;12.522;2023-07-29T08:18:20;6.00;;;1.95;;
19225;SDS011;9747;48.536;12.522;2023-07-29T08:20:51;2.85;;;2.00;;
19225;SDS011;9747;48.536;12.522;2023-07-29T08:23:20;4.25;;;2.10;;
19225;SDS011;9747;48.536;12.522;2023-07-29T08:25:52;5.35;;;2.42;;
19225;SDS011;9747;48.536;12.522;2023-07-29T08:28:21;4.43;;;2.22;;
19225;SDS011;9747;48.536;12.522;2023-07-29T08:30:48;4.20;;;2.17;;
19225;SDS011;9747;48.536;12.522;2023-07-29T08:33:17;2.65;;;2.25;;
19225;SDS011;9747;48.536;12.522;2023-07-29T08:35:45;4.03;;;2.28;;
19225;SDS011;9747;48.536;12.522;2023-07-29T08:38:12;6.95;;;2.15;;
19225;SDS011;9747;48.536;12.522;2023-07-29T08:40:41;2.38;;;2.17;;
19225;SDS011;9747;48.536;12.522;2023-07-29T08:43:11;4.53;;;2.17;;
19225;SDS011;9747;48.536;12.522;2023-07-29T08:45:40;4.07;;;2.30;;
19225;SDS011;9747;48.536;12.522;2023-07-29T08:48:08;2.95;;;2.30;;
19225;SDS011;9747;48.536;12.522;2023-07-29T08:50:38;2.10;;;2.00;;
19225;SDS011;9747;48.536;12.522;2023-07-29T08:53:06;4.25;;;2.10;;
19225;SDS011;9747;48.536;12.522;2023-07-29T08:55:33;2.45;;;2.25;;
19225;SDS011;9747;48.536;12.522;2023-07-29T08:58:01;2.40;;;2.20;;
19225;SDS011;9747;48.536;12.522;2023-07-29T09:00:29;2.45;;;2.25;;
19225;SDS011;9747;48.536;12.522;2023-07-29T09:02:57;2.58;;;2.00;;
19225;SDS011;9747;48.536;12.522;2023-07-29T09:05:32;3.13;;;1.90;;
19225;SDS011;9747;48.536;12.522;2023-07-29T09:08:02;2.42;;;2.08;;
19225;SDS011;9747;48.536;12.522;2023-07-29T09:10:34;2.15;;;1.95;;
19225;SDS011;9747;48.536;12.522;2023-07-29T09:13:03;2.33;;;2.13;;
19225;SDS011;9747;48.536;12.522;2023-07-29T09:15:31;2.58;;;2.05;;
19225;SDS011;9747;48.536;12.522;2023-07-29T09:18:08;2.80;;;2.13;;
19225;SDS011;9747;48.536;12.522;2023-07-29T09:20:36;3.08;;;2.40;;
19225;SDS011;9747;48.536;12.522;2023-07-29T09:23:07;3.30;;;2.20;;
19225;SDS011;9747;48.536;12.522;2023-07-29T09:25:36;2.65;;;2.45;;
19225;SDS011;9747;48.536;12.522;2023-07-29T09:28:07;3.55;;;2.15;;
19225;SDS011;9747;48.536;12.522;2023-07-29T09:30:37;2.85;;;2.40;;
19225;SDS011;9747;48.536;12.522;2023-07-29T09:33:05;3.25;;;2.28;;
19225;SDS011;9747;48.536;12.522;2023-07-29T09:35:33;2.80;;;2.45;;
19225;SDS011;9747;48.536;12.522;2023-07-29T09:38:02;2.60;;;2.40;;
19225;SDS011;9747;48.536;12.522;2023-07-29T09:40:35;2.38;;;2.17;;
19225;SDS011;9747;48.536;12.522;2023-07-29T09:43:03;2.35;;;2.15;;
19225;SDS011;9747;48.536;12.522;2023-07-29T09:45:32;3.47;;;2.03;;
19225;SDS011;9747;48.536;12.522;2023-07-29T09:48:02;4.40;;;2.53;;
19225;SDS011;9747;48.536;12.522;2023-07-29T09:50:34;2.70;;;2.30;;
19225;SDS011;9747;48.536;12.522;2023-07-29T09:53:02;4.47;;;2.25;;
19225;SDS011;9747;48.536;12.522;2023-07-29T09:55:32;3.80;;;2.08;;
19225;SDS011;9747;48.536;12.522;2023-07-29T09:58:00;4.82;;;2.30;;
19225;SDS011;9747;48.536;12.522;2023-07-29T10:00:32;2.33;;;2.00;;
19225;SDS011;9747;48.536;12.522;2023-07-29T10:03:00;4.47;;;2.03;;
19225;SDS011;9747;48.536;12.522;2023-07-29T10:05:27;2.28;;;2.00;;
19225;SDS011;9747;48.536;12.522;2023-07-29T10:07:56;2.72;;;2.28;;
19225;SDS011;9747;48.536;12.522;2023-07-29T10:10:23;4.00;;;2.17;;
19225;SDS011;9747;48.536;12.522;2023-07-29T10:12:52;2.47;;;2.17;;
19225;SDS011;9747;48.536;12.522;2023-07-29T10:15:20;2.83;;;2.10;;
19225;SDS011;9747;48.536;12.522;2023-07-29T10:17:48;2.97;;;2.50;;
19225;SDS011;9747;48.536;12.522;2023-07-29T10:20:17;3.63;;;2.70;;
19225;SDS011;9747;48.536;12.522;2023-07-29T10:22:45;2.45;;;2.25;;
19225;SDS011;9747;48.536;12.522;2023-07-29T10:25:15;4.50;;;2.70;;
19225;SDS011;9747;48.536;12.522;2023-07-29T10:27:47;3.97;;;2.20;;
19225;SDS011;9747;48.536;12.522;2023-07-29T10:30:17;3.58;;;2.45;;
19225;SDS011;9747;48.536;12.522;2023-07-29T10:32:45;3.75;;;2.60;;
19225;SDS011;9747;48.536;12.522;2023-07-29T10:35:13;2.53;;;2.30;;
19225;SDS011;9747;48.536;12.522;2023-07-29T10:37:41;2.53;;;2.10;;
19225;SDS011;9747;48.536;12.522;2023-07-29T10:40:10;2.72;;;2.20;;
19225;SDS011;9747;48.536;12.522;2023-07-29T10:42:38;2.83;;;2.40;;
19225;SDS011;9747;48.536;12.522;2023-07-29T10:45:35;2.20;;;2.03;;
19225;SDS011;9747;48.536;12.522;2023-07-29T10:48:05;3.30;;;2.30;;
19225;SDS011;9747;48.536;12.522;2023-07-29T10:50:34;3.15;;;2.33;;
19225;SDS011;9747;48.536;12.522;2023-07-29T10:53:02;2.53;;;2.30;;
19225;SDS011;9747;48.536;12.522;2023-07-29T10:55:30;2.65;;;2.28;;
19225;SDS011;9747;48.536;12.522;2023-07-29T10:58:05;3.00;;;2.22;;
19225;SDS011;9747;48.536;12.522;2023-07-29T11:00:36;2.72;;;2.20;;
19225;SDS011;9747;48.536;12.522;2023-07-29T11:03:05;3.67;;;2.35;;
19225;SDS011;9747;48.536;12.522;2023-07-29T11:08:18;4.00;;;2.40;;
19225;SDS011;9747;48.536;12.522;2023-07-29T11:11:01;2.40;;;2.20;;
19225;SDS011;9747;48.536;12.522;2023-07-29T11:13:32;2.75;;;2.20;;
19225;SDS011;9747;48.536;12.522;2023-07-29T11:16:02;2.13;;;2.03;;
19225;SDS011;9747;48.536;12.522;2023-07-29T11:18:31;3.00;;;2.30;;
19225;SDS011;9747;48.536;12.522;2023-07-29T11:21:00;2.30;;;2.10;;
19225;SDS011;9747;48.536;12.522;2023-07-29T11:23:29;2.35;;;2.10;;
19225;SDS011;9747;48.536;12.522;2023-07-29T11:25:59;4.28;;;2.20;;
19225;SDS011;9747;48.536;12.522;2023-07-29T11:28:28;1.95;;;1.85;;
19225;SDS011;9747;48.536;12.522;2023-07-29T11:30:55;2.85;;;2.30;;
19225;SDS011;9747;48.536;12.522;2023-07-29T11:33:25;3.15;;;2.45;;
19225;SDS011;9747;48.536;12.522;2023-07-29T11:35:54;2.63;;;1.98;;
19225;SDS011;9747;48.536;12.522;2023-07-29T11:38:22;2.85;;;2.38;;
19225;SDS011;9747;48.536;12.522;2023-07-29T11:40:56;3.78;;;1.90;;
19225;SDS011;9747;48.536;12.522;2023-07-29T11:43:28;2.20;;;1.90;;
19225;SDS011;9747;48.536;12.522;2023-07-29T11:45:55;2.33;;;2.10;;
19225;SDS011;9747;48.536;12.522;2023-07-29T11:48:27;2.20;;;2.10;;
19225;SDS011;9747;48.536;12.522;2023-07-29T11:50:57;2.38;;;2.28;;
19225;SDS011;9747;48.536;12.522;2023-07-29T11:53:25;2.60;;;2.40;;
19225;SDS011;9747;48.536;12.522;2023-07-29T11:55:55;3.05;;;2.10;;
19225;SDS011;9747;48.536;12.522;2023-07-29T11:58:23;2.60;;;2.38;;
19225;SDS011;9747;48.536;12.522;2023-07-29T12:00:51;6.80;;;2.55;;
19225;SDS011;9747;48.536;12.522;2023-07-29T12:03:18;2.10;;;1.95;;
19225;SDS011;9747;48.536;12.522;2023-07-29T12:05:47;2.53;;;2.00;;
19225;SDS011;9747;48.536;12.522;2023-07-29T12:08:15;2.50;;;2.30;;
19225;SDS011;9747;48.536;12.522;2023-07-29T12:10:42;2.40;;;2.25;;
19225;SDS011;9747;48.536;12.522;2023-07-29T12:13:10;3.00;;;2.20;;
19225;SDS011;9747;48.536;12.522;2023-07-29T12:15:38;3.22;;;2.25;;
19225;SDS011;9747;48.536;12.522;2023-07-29T12:18:06;3.58;;;2.38;;
19225;SDS011;9747;48.536;12.522;2023-07-29T12:20:33;2.13;;;2.03;;
19225;SDS011;9747;48.536;12.522;2023-07-29T12:23:02;2.30;;;2.20;;
19225;SDS011;9747;48.536;12.522;2023-07-29T12:25:31;2.70;;;2.38;;
19225;SDS011;9747;48.536;12.522;2023-07-29T12:28:02;4.30;;;2.05;;
19225;SDS011;9747;48.536;12.522;2023-07-29T12:30:31;2.60;;;2.05;;
19225;SDS011;9747;48.536;12.522;2023-07-29T12:32:59;2.10;;;1.90;;
19225;SDS011;9747;48.536;12.522;2023-07-29T12:35:33;1.98;;;1.85;;
19225;SDS011;9747;48.536;12.522;2023-07-29T12:38:04;2.40;;;2.20;;
19225;SDS011;9747;48.536;12.522;2023-07-29T12:40:31;2.25;;;2.05;;
19225;SDS011;9747;48.536;12.522;2023-07-29T12:42:58;2.90;;;2.20;;
19225;SDS011;9747;48.536;12.522;2023-07-29T12:45:26;4.85;;;2.33;;
19225;SDS011;9747;48.536;12.522;2023-07-29T12:47:54;2.20;;;1.98;;
19225;SDS011;9747;48.536;12.522;2023-07-29T12:50:21;2.22;;;1.95;;
19225;SDS011;9747;48.536;12.522;2023-07-29T12:52:49;1.80;;;1.70;;
19225;SDS011;9747;48.536;12.522;2023-07-29T12:55:18;2.25;;;2.13;;
19225;SDS011;9747;48.536;12.522;2023-07-29T12:57:45;3.13;;;1.90;;
19225;SDS011;9747;48.536;12.522;2023-07-29T13:00:13;2.05;;;1.77;;
19225;SDS011;9747;48.536;12.522;2023-07-29T13:02:40;2.45;;;1.88;;
19225;SDS011;9747;48.536;12.522;2023-07-29T13:05:09;1.95;;;1.77;;
19225;SDS011;9747;48.536;12.522;2023-07-29T13:07:37;10.48;;;2.40;;
19225;SDS011;9747;48.536;12.522;2023-07-29T13:10:06;8.43;;;2.35;;
19225;SDS011;9747;48.536;12.522;2023-07-29T13:12:36;6.60;;;1.95;;
19225;SDS011;9747;48.536;12.522;2023-07-29T13:15:04;2.45;;;2.00;;
19225;SDS011;9747;48.536;12.522;2023-07-29T13:17:32;4.55;;;2.00;;
19225;SDS011;9747;48.536;12.522;2023-07-29T13:20:00;3.83;;;2.00;;
19225;SDS011;9747;48.536;12.522;2023-07-29T13:22:27;5.28;;;2.30;;
19225;SDS011;9747;48.536;12.522;2023-07-29T13:24:55;3.50;;;2.08;;
19225;SDS011;9747;48.536;12.522;2023-07-29T13:27:22;3.65;;;1.92;;
19225;SDS011;9747;48.536;12.522;2023-07-29T13:29:52;5.38;;;2.05;;
19225;SDS011;9747;48.536;12.522;2023-07-29T13:32:19;6.45;;;2.33;;
19225;SDS011;9747;48.536;12.522;2023-07-29T13:34:46;2.65;;;2.13;;
19225;SDS011;9747;48.536;12.522;2023-07-29T13:37:14;2.47;;;2.10;;
19225;SDS011;9747;48.536;12.522;2023-07-29T13:39:41;3.13;;;2.20;;
19225;SDS011;9747;48.536;12.522;2023-07-29T13:42:09;2.50;;;2.03;;
19225;SDS011;9747;48.536;12.522;2023-07-29T13:44:36;3.05;;;2.38;;
19225;SDS011;9747;48.536;12.522;2023-07-29T13:47:06;3.22;;;2.08;;
19225;SDS011;9747;48.536;12.522;2023-07-29T13:49:33;3.83;;;2.17;;
19225;SDS011;9747;48.536;12.522;2023-07-29T13:52:01;3.05;;;2.20;;
19225;SDS011;9747;48.536;12.522;2023-07-29T13:54:28;2.33;;;1.95;;
19225;SDS011;9747;48.536;12.522;2023-07-29T13:56:56;3.03;;;2.60;;
19225;SDS011;9747;48.536;12.522;2023-07-29T13:59:23;2.67;;;2.13;;
19225;SDS011;9747;48.536;12.522;2023-07-29T14:01:51;3.65;;;2.38;;
19225;SDS011;9747;48.536;12.522;2023-07-29T14:04:20;2.75;;;2.08;;
19225;SDS011;9747;48.536;12.522;2023-07-29T14:06:47;2.95;;;2.13;;
19225;SDS011;9747;48.536;12.522;2023-07-29T14:09:15;2.50;;;2.30;;
19225;SDS011;9747;48.536;12.522;2023-07-29T14:11:42;2.35;;;2.00;;
19225;SDS011;9747;48.536;12.522;2023-07-29T14:14:09;2.72;;;2.10;;
19225;SDS011;9747;48.536;12.522;2023-07-29T14:16:37;2.42;;;2.22;;
19225;SDS011;9747;48.536;12.522;2023-07-29T14:19:04;3.13;;;2.45;;
19225;SDS011;9747;48.536;12.522;2023-07-29T14:21:33;3.05;;;2.20;;
19225;SDS011;9747;48.536;12.522;2023-07-29T14:24:01;2.53;;;2.20;;
19225;SDS011;9747;48.536;12.522;2023-07-29T14:26:28;3.25;;;2.17;;
19225;SDS011;9747;48.536;12.522;2023-07-29T14:28:56;2.33;;;2.05;;
19225;SDS011;9747;48.536;12.522;2023-07-29T14:31:24;2.50;;;2.30;;
19225;SDS011;9747;48.536;12.522;2023-07-29T14:33:51;2.40;;;2.20;;
19225;SDS011;9747;48.536;12.522;2023-07-29T14:36:19;3.95;;;2.30;;
19225;SDS011;9747;48.536;12.522;2023-07-29T14:38:48;2.20;;;2.00;;
19225;SDS011;9747;48.536;12.522;2023-07-29T14:41:16;5.75;;;2.20;;
19225;SDS011;9747;48.536;12.522;2023-07-29T14:43:43;4.90;;;2.40;;
19225;SDS011;9747;48.536;12.522;2023-07-29T14:46:11;8.68;;;2.80;;
19225;SDS011;9747;48.536;12.522;2023-07-29T14:48:38;4.07;;;2.40;;
19225;SDS011;9747;48.536;12.522;2023-07-29T14:51:06;3.50;;;2.42;;
19225;SDS011;9747;48.536;12.522;2023-07-29T14:53:33;3.20;;;2.30;;
19225;SDS011;9747;48.536;12.522;2023-07-29T14:56:02;3.00;;;2.35;;
19225;SDS011;9747;48.536;12.522;2023-07-29T14:58:30;3.08;;;2.63;;